Time;durP1;ratioP1;P1;durP2;ratioP2;P2;SDS_P1;SDS_P2;PMS_P1;PMS_P2;Temp;Humidity;BMP_temperature;BMP_pressure;BME280_temperature;BME280_humidity;BME280_pressure;Samples;Min_cycle;Max_cycle;Signal;HPM_P1;HPM_P2
2022/04/20 00:01:46;;;;;;;0.75;0.70;;;;;;;21.49;30.94;101344.53;5011450;28;20034;-71
2022/04/20 00:04:12;;;;;;;0.68;0.68;;;;;;;21.49;30.82;101350.88;5011775;28;20042;-71
2022/04/20 00:06:37;;;;;;;1.10;0.80;;;;;;;21.48;30.80;101360.28;5010460;28;20026;-71
2022/04/20 00:09:03;;;;;;;0.70;0.70;;;;;;;21.48;30.81;101359.44;5011950;28;20034;-71
2022/04/20 00:11:28;;;;;;;0.70;0.70;;;;;;;21.48;30.81;101363.03;5011955;28;20418;-71
2022/04/20 00:13:54;;;;;;;0.60;0.60;;;;;;;21.48;30.80;101356.69;5011551;28;20026;-71
2022/04/20 00:16:19;;;;;;;0.70;0.70;;;;;;;21.47;30.93;101355.84;5011855;28;20034;-71
2022/04/20 00:18:44;;;;;;;0.65;0.65;;;;;;;21.46;30.91;101356.94;5011499;28;20107;-71
2022/04/20 00:21:10;;;;;;;0.50;0.50;;;;;;;21.46;30.87;101359.72;5011797;28;20386;-71
2022/04/20 00:23:35;;;;;;;0.73;0.73;;;;;;;21.47;31.10;101357.81;5011102;28;20404;-71
2022/04/20 00:26:01;;;;;;;0.60;0.60;;;;;;;21.46;30.82;101359.72;5011140;28;20045;-71
2022/04/20 00:28:26;;;;;;;0.60;0.60;;;;;;;21.46;30.75;101364.41;5011733;28;20359;-71
2022/04/20 00:30:51;;;;;;;0.45;0.43;;;;;;;21.45;30.70;101369.13;5011342;28;20042;-71
2022/04/20 00:33:17;;;;;;;0.98;0.47;;;;;;;21.45;30.70;101360.84;5011070;28;20533;-71
2022/04/20 00:35:43;;;;;;;0.65;0.65;;;;;;;21.45;30.90;101365.50;5011327;28;20026;-71
2022/04/20 00:38:08;;;;;;;0.77;0.70;;;;;;;21.45;31.08;101362.75;5011681;28;20485;-71
2022/04/20 00:40:34;;;;;;;0.63;0.63;;;;;;;21.45;31.14;101368.28;5011285;28;20030;-71
2022/04/20 00:42:59;;;;;;;0.70;0.70;;;;;;;21.44;30.81;101367.44;5011227;28;20037;-71
2022/04/20 00:45:26;;;;;;;0.50;0.50;;;;;;;21.45;31.12;101371.03;5011935;28;20091;-71
2022/04/20 00:47:53;;;;;;;0.60;0.60;;;;;;;21.43;31.07;101367.72;5011169;28;20049;-71
2022/04/20 00:50:21;;;;;;;0.65;0.65;;;;;;;21.43;31.03;101368.56;5011374;28;20091;-71
2022/04/20 00:52:47;;;;;;;0.50;0.50;;;;;;;21.43;31.09;101373.25;5011375;28;20029;-71
2022/04/20 00:55:12;;;;;;;0.50;0.50;;;;;;;21.42;31.03;101375.19;5011590;28;20034;-71
2022/04/20 00:57:38;;;;;;;0.70;0.70;;;;;;;21.44;31.14;101374.91;5011763;28;20038;-71
2022/04/20 01:00:04;;;;;;;0.60;0.60;;;;;;;21.42;31.07;101377.97;4993170;28;20476;-71
2022/04/20 01:02:30;;;;;;;0.70;0.70;;;;;;;21.42;31.03;101369.69;5011174;28;20474;-70
2022/04/20 01:04:56;;;;;;;0.75;0.75;;;;;;;21.42;31.01;101369.69;5009485;28;20054;-71
2022/04/20 01:07:22;;;;;;;0.65;0.65;;;;;;;21.42;31.29;101371.59;5010954;28;20358;-71
2022/04/20 01:09:47;;;;;;;1.08;0.63;;;;;;;21.43;31.00;101373.25;5010556;28;20517;-71
2022/04/20 01:12:14;;;;;;;0.70;0.70;;;;;;;21.42;31.18;101366.06;5009484;28;20038;-71
2022/04/20 01:14:41;;;;;;;0.55;0.55;;;;;;;21.43;31.07;101373.25;5009541;28;20091;-71
2022/04/20 01:17:06;;;;;;;0.70;0.70;;;;;;;21.42;31.20;101377.97;5010754;28;20087;-71
2022/04/20 01:19:39;;;;;;;0.77;0.60;;;;;;;21.42;31.21;101375.19;5009938;28;20046;-71
2022/04/20 01:22:07;;;;;;;0.57;0.52;;;;;;;21.41;31.25;101373.53;5011039;28;20053;-71
2022/04/20 01:24:33;;;;;;;1.42;0.60;;;;;;;21.42;31.13;101374.34;5010725;28;20041;-71
2022/04/20 01:27:01;;;;;;;0.85;0.55;;;;;;;21.42;31.14;101368.81;5009479;28;20141;-71
2022/04/20 01:29:27;;;;;;;0.60;0.60;;;;;;;21.40;31.29;101369.09;5009447;28;20072;-71
2022/04/20 01:31:53;;;;;;;0.52;0.52;;;;;;;21.40;31.16;101371.88;5010636;28;20041;-71
2022/04/20 01:34:18;;;;;;;0.57;0.57;;;;;;;21.40;31.18;101376.56;5010585;28;20034;-71
2022/04/20 01:36:44;;;;;;;0.57;0.57;;;;;;;21.40;31.05;101380.16;5012002;28;20469;-71
2022/04/20 01:39:09;;;;;;;0.60;0.60;;;;;;;21.39;31.27;101372.97;5013980;28;20026;-71
2022/04/20 01:41:35;;;;;;;0.52;0.52;;;;;;;21.39;31.16;101378.47;5014182;28;20425;-71
2022/04/20 01:44:00;;;;;;;0.63;0.63;;;;;;;21.39;31.22;101378.47;5014078;28;20112;-71
2022/04/20 01:46:25;;;;;;;1.10;0.68;;;;;;;21.39;31.22;101375.72;5014355;28;20113;-71
2022/04/20 01:48:51;;;;;;;0.95;0.65;;;;;;;21.38;31.23;101372.16;5014056;28;20518;-71
2022/04/20 01:54:00;;;;;;;0.65;0.50;;;;;;;21.37;31.28;101375.19;5014027;28;20090;-71
2022/04/20 01:56:25;;;;;;;0.98;0.70;;;;;;;21.37;31.31;101367.72;5013095;28;20030;-71
2022/04/20 01:58:51;;;;;;;0.60;0.60;;;;;;;21.37;31.17;101373.22;5013359;28;20030;-71
2022/04/20 02:04:00;;;;;;;0.40;0.40;;;;;;;21.38;31.08;101376.84;5013591;28;20444;-71
2022/04/20 02:06:26;;;;;;;0.70;0.70;;;;;;;21.38;31.41;101380.41;5013313;28;20034;-71
2022/04/20 02:08:51;;;;;;;0.70;0.70;;;;;;;21.36;31.33;101374.34;5013822;28;20041;-71
2022/04/20 02:11:16;;;;;;;0.60;0.60;;;;;;;21.36;31.30;101382.63;5013770;28;20030;-71
2022/04/20 02:13:42;;;;;;;0.88;0.63;;;;;;;21.36;31.07;101376.28;5014009;28;20116;-71
2022/04/20 02:16:08;;;;;;;0.60;0.60;;;;;;;21.36;31.24;101377.13;5013302;28;20041;-71
2022/04/20 02:18:33;;;;;;;0.50;0.50;;;;;;;21.36;31.23;101376.28;5012016;28;20026;-71
2022/04/20 02:20:59;;;;;;;0.75;0.75;;;;;;;21.36;31.55;101370.75;5012455;28;20487;-71
2022/04/20 02:23:26;;;;;;;0.50;0.50;;;;;;;21.35;31.14;101369.94;4995760;28;20434;-71
2022/04/20 02:25:52;;;;;;;0.50;0.50;;;;;;;21.36;31.33;101370.75;5012955;28;20034;-71
2022/04/20 02:28:18;;;;;;;0.65;0.65;;;;;;;21.35;31.12;101364.41;5013238;28;20454;-71
2022/04/20 02:30:43;;;;;;;0.60;0.60;;;;;;;21.35;31.36;101366.34;5013750;28;20061;-71
2022/04/20 02:33:09;;;;;;;0.70;0.70;;;;;;;21.34;31.17;101367.44;5013709;28;20458;-71
2022/04/20 02:35:36;;;;;;;0.73;0.73;;;;;;;21.34;31.24;101368.28;5013414;28;20463;-71
2022/04/20 02:38:02;;;;;;;0.60;0.60;;;;;;;21.35;31.03;101367.19;5011763;28;20393;-71
2022/04/20 02:40:30;;;;;;;0.77;0.70;;;;;;;21.34;31.20;101359.19;5013325;28;20034;-71
2022/04/20 02:42:56;;;;;;;0.80;0.80;;;;;;;21.34;31.40;101367.44;5013002;28;20037;-71
2022/04/20 02:45:22;;;;;;;0.55;0.55;;;;;;;21.33;31.31;101374.91;5012633;28;20052;-71
2022/04/20 02:47:48;;;;;;;0.80;0.80;;;;;;;21.33;31.37;101369.41;5013055;28;20457;-71
2022/04/20 02:50:13;;;;;;;0.40;0.40;;;;;;;21.33;31.32;101374.91;5011441;28;20038;-71
2022/04/20 02:52:38;;;;;;;0.60;0.60;;;;;;;21.32;31.43;101376.00;4996137;28;20374;-71
2022/04/20 02:55:04;;;;;;;0.60;0.60;;;;;;;21.33;31.42;101382.34;5012845;28;20033;-71
2022/04/20 02:57:29;;;;;;;0.52;0.52;;;;;;;21.33;31.52;101387.88;5012742;28;20506;-71
2022/04/20 02:59:55;;;;;;;0.60;0.60;;;;;;;21.33;31.32;101379.59;5012833;28;20389;-71
2022/04/20 03:02:20;;;;;;;0.63;0.63;;;;;;;21.32;31.26;101389.00;5012729;28;20121;-71
2022/04/20 03:04:46;;;;;;;0.65;0.65;;;;;;;21.32;31.50;101381.53;5012880;28;20186;-71
2022/04/20 03:07:11;;;;;;;0.85;0.85;;;;;;;21.31;31.59;101379.88;5012320;28;20052;-71
2022/04/20 03:09:36;;;;;;;0.65;0.65;;;;;;;21.32;31.37;101389.00;5013172;28;20117;-71
2022/04/20 03:12:02;;;;;;;0.65;0.65;;;;;;;21.30;31.21;101386.47;5012602;28;20030;-71
2022/04/20 03:14:27;;;;;;;0.70;0.70;;;;;;;21.31;31.43;101385.38;5012465;28;20607;-71
2022/04/20 03:16:53;;;;;;;0.80;0.80;;;;;;;21.30;31.51;101380.97;5012729;28;20030;-71
2022/04/20 03:19:18;;;;;;;0.50;0.50;;;;;;;21.30;31.45;101382.91;5012493;28;20065;-71
2022/04/20 03:21:44;;;;;;;0.63;0.63;;;;;;;21.30;31.53;101380.13;5012744;28;20040;-70
2022/04/20 03:24:09;;;;;;;0.60;0.60;;;;;;;21.29;31.28;101381.22;5011145;28;20038;-71
2022/04/20 03:26:34;;;;;;;0.60;0.60;;;;;;;21.28;31.36;101379.59;5012396;28;20407;-71
2022/04/20 03:29:00;;;;;;;0.75;0.70;;;;;;;21.29;31.41;101386.75;5011103;28;20041;-70
2022/04/20 03:31:25;;;;;;;0.60;0.60;;;;;;;21.28;31.25;101394.22;5012321;28;20022;-71
2022/04/20 03:33:51;;;;;;;0.55;0.55;;;;;;;21.28;31.22;101391.44;5012787;28;20026;-71
2022/04/20 03:36:16;;;;;;;0.80;0.80;;;;;;;21.28;31.36;101401.69;5012178;28;20120;-71
2022/04/20 03:38:42;;;;;;;0.70;0.70;;;;;;;21.28;31.23;101398.91;5012385;28;20458;-71
2022/04/20 03:41:07;;;;;;;0.65;0.65;;;;;;;21.27;31.45;101402.75;5012416;28;20044;-71
2022/04/20 03:43:33;;;;;;;0.70;0.70;;;;;;;21.27;31.11;101405.53;5011485;28;20037;-71
2022/04/20 03:45:58;;;;;;;0.80;0.80;;;;;;;21.26;31.26;101399.19;5012014;28;20033;-71
2022/04/20 03:48:24;;;;;;;0.95;0.95;;;;;;;21.27;31.26;101405.53;5012025;28;20543;-71
2022/04/20 03:50:50;;;;;;;0.60;0.60;;;;;;;21.26;31.57;101401.09;5011660;28;20117;-71
2022/04/20 03:53:16;;;;;;;0.60;0.60;;;;;;;21.26;31.32;101399.19;5011953;28;20030;-71
2022/04/20 03:55:43;;;;;;;0.80;0.80;;;;;;;21.26;31.42;101403.84;5011208;28;20378;-71
2022/04/20 03:58:08;;;;;;;0.88;0.88;;;;;;;21.26;31.20;101412.13;5011784;28;20030;-71
2022/04/20 04:00:34;;;;;;;0.63;0.63;;;;;;;21.25;31.26;101405.81;5012005;28;20078;-71
2022/04/20 04:02:59;;;;;;;1.17;0.93;;;;;;;21.25;31.25;101410.50;5012318;28;20033;-71
2022/04/20 04:05:24;;;;;;;0.60;0.60;;;;;;;21.25;31.15;101404.97;5011376;28;20053;-71
2022/04/20 04:07:50;;;;;;;1.00;0.95;;;;;;;21.25;31.41;101407.75;5010545;28;20079;-71
2022/04/20 04:10:15;;;;;;;0.77;0.77;;;;;;;21.24;31.18;101414.34;5011691;28;20451;-71
2022/04/20 04:12:41;;;;;;;0.80;0.80;;;;;;;21.24;31.29;101414.34;4994117;28;20103;-71
2022/04/20 04:15:07;;;;;;;0.80;0.80;;;;;;;21.23;31.38;101416.28;5011490;28;20124;-72
2022/04/20 04:17:33;;;;;;;1.00;0.63;;;;;;;21.23;31.25;101413.53;5010237;28;20121;-71
2022/04/20 04:19:58;;;;;;;0.70;0.70;;;;;;;21.23;31.40;101419.06;5011843;28;20385;-71
2022/04/20 04:22:24;;;;;;;0.77;0.77;;;;;;;21.22;31.43;101422.91;5011548;28;20157;-71
2022/04/20 04:24:49;;;;;;;0.80;0.80;;;;;;;21.22;31.27;101425.66;5011984;28;20090;-71
2022/04/20 04:27:15;;;;;;;0.70;0.70;;;;;;;21.23;30.92;101426.47;5011407;28;20038;-71
2022/04/20 04:29:40;;;;;;;0.80;0.80;;;;;;;21.22;31.25;101425.66;4993876;28;20378;-71
2022/04/20 04:32:07;;;;;;;0.93;0.82;;;;;;;21.22;31.32;101424.84;5011647;28;20454;-71
2022/04/20 04:34:33;;;;;;;0.80;0.80;;;;;;;21.22;31.29;101436.72;5010979;28;20432;-71
2022/04/20 04:36:59;;;;;;;0.93;0.90;;;;;;;21.22;31.56;101433.13;5009821;28;20042;-71
2022/04/20 04:39:28;;;;;;;1.27;0.70;;;;;;;21.21;31.56;101429.53;5011279;28;20030;-71
2022/04/20 04:41:56;;;;;;;0.65;0.65;;;;;;;21.21;31.43;101443.31;5010020;28;20038;-71
2022/04/20 04:44:22;;;;;;;0.90;0.90;;;;;;;21.20;31.38;101439.75;5011151;28;20034;-71
2022/04/20 04:49:31;;;;;;;0.93;0.70;;;;;;;21.21;31.78;101446.06;5011244;28;20045;-71
2022/04/20 04:51:58;;;;;;;0.77;0.77;;;;;;;21.20;31.47;101450.78;5010725;28;20030;-71
2022/04/20 04:54:24;;;;;;;0.60;0.60;;;;;;;21.20;31.56;101452.72;5010847;28;20034;-71
2022/04/20 04:56:50;;;;;;;0.80;0.80;;;;;;;21.20;31.37;101461.00;5011085;28;20461;-71
2022/04/20 04:59:16;;;;;;;0.63;0.63;;;;;;;21.20;31.41;101461.00;5010700;28;20034;-71
2022/04/20 05:01:42;;;;;;;0.60;0.60;;;;;;;21.19;31.36;101462.91;5011022;28;20439;-71
2022/04/20 05:04:07;;;;;;;0.63;0.63;;;;;;;21.20;31.60;101450.78;4993204;28;20074;-72
2022/04/20 05:06:33;;;;;;;1.00;0.65;;;;;;;21.20;31.47;101455.47;5010944;28;20046;-71
2022/04/20 05:08:58;;;;;;;0.80;0.80;;;;;;;21.20;31.49;101449.97;5026108;28;20462;-72
2022/04/20 05:11:24;;;;;;;0.80;0.80;;;;;;;21.20;31.50;101449.97;5010391;28;20154;-71
2022/04/20 05:13:49;;;;;;;0.77;0.77;;;;;;;21.21;31.50;101451.59;5014416;28;20116;-68
2022/04/20 05:16:14;;;;;;;0.98;0.80;;;;;;;21.18;29.70;101457.66;5013510;28;20034;-70
2022/04/20 05:18:40;;;;;;;1.38;1.27;;;;;;;20.97;28.54;101454.84;5013965;28;20057;-71
2022/04/20 05:21:05;;;;;;;1.70;1.60;;;;;;;20.69;27.98;101450.59;5013983;28;20110;-70
2022/04/20 05:23:31;;;;;;;1.60;1.50;;;;;;;20.40;28.21;101453.72;5013017;28;20538;-70
2022/04/20 05:25:56;;;;;;;1.55;1.48;;;;;;;20.18;28.20;101461.31;5013007;28;20038;-72
2022/04/20 05:28:22;;;;;;;1.70;1.60;;;;;;;19.96;28.43;101457.59;5013715;28;20453;-71
2022/04/20 05:30:48;;;;;;;2.78;1.98;;;;;;;19.79;28.50;101454.13;5014315;28;20045;-70
2022/04/20 05:33:14;;;;;;;1.80;1.70;;;;;;;19.61;28.69;101458.91;5014540;28;20049;-71
2022/04/20 05:35:39;;;;;;;2.17;1.98;;;;;;;19.49;28.81;101465.66;5014301;28;20458;-70
2022/04/20 05:43:32;;;;;;;1.85;1.75;;;;;;;19.17;29.22;101472.78;5013456;28;20087;-72
2022/04/20 05:45:58;;;;;;;2.15;2.00;;;;;;;19.11;29.40;101479.31;5014068;28;20038;-71
2022/04/20 05:48:24;;;;;;;2.00;1.90;;;;;;;19.05;29.36;101478.41;5013804;28;20069;-69
2022/04/20 05:50:49;;;;;;;2.13;2.00;;;;;;;18.99;29.35;101475.88;5013196;28;20121;-68
2022/04/20 05:53:14;;;;;;;1.85;1.70;;;;;;;18.93;29.99;101474.97;5014063;28;20041;-72
2022/04/20 05:55:40;;;;;;;1.98;1.88;;;;;;;18.93;29.78;101474.97;5013718;28;20112;-70
2022/04/20 05:58:06;;;;;;;2.00;1.90;;;;;;;18.89;29.61;101471.06;5013598;28;20458;-71
2022/04/20 06:00:31;;;;;;;1.90;1.80;;;;;;;18.89;30.84;101477.38;5013724;28;20073;-71
2022/04/20 06:02:57;;;;;;;2.05;1.90;;;;;;;18.89;29.92;101471.06;5013627;28;20053;-71
2022/04/20 06:05:23;;;;;;;2.78;2.03;;;;;;;18.87;29.77;101470.50;5014041;28;20054;-72
2022/04/20 06:07:49;;;;;;;1.85;1.75;;;;;;;18.83;29.79;101466.56;5013557;28;20044;-72
2022/04/20 06:10:14;;;;;;;2.45;2.10;;;;;;;18.80;29.90;101472.59;5013506;28;20038;-72
2022/04/20 06:12:40;;;;;;;2.22;2.03;;;;;;;18.75;30.05;101467.84;5013737;28;20554;-71
2022/04/20 06:15:06;;;;;;;2.40;2.20;;;;;;;18.71;29.81;101470.25;5013372;28;20045;-72
2022/04/20 06:17:32;;;;;;;2.20;2.00;;;;;;;18.69;30.03;101477.94;5013172;28;20030;-72
2022/04/20 06:19:57;;;;;;;2.17;2.00;;;;;;;18.67;30.06;101477.34;5012064;28;20069;-72
2022/04/20 06:22:23;;;;;;;2.17;2.08;;;;;;;18.65;30.50;101471.28;5012815;28;20134;-72
2022/04/20 06:24:48;;;;;;;2.13;1.92;;;;;;;18.74;30.45;101480.75;5011998;28;20077;-70
2022/04/20 06:27:15;;;;;;;2.67;2.15;;;;;;;18.89;30.50;101485.63;5013637;28;20069;-71
2022/04/20 06:29:40;;;;;;;2.00;1.90;;;;;;;19.04;30.39;101489.66;5013097;28;20076;-71
2022/04/20 06:32:06;;;;;;;1.80;1.70;;;;;;;19.19;30.20;101481.63;5013148;28;20026;-70
2022/04/20 06:34:32;;;;;;;1.85;1.75;;;;;;;19.31;30.10;101481.47;5013123;28;20060;-70
2022/04/20 06:36:57;;;;;;;2.03;1.63;;;;;;;19.40;30.00;101482.66;5012742;28;20068;-71
2022/04/20 06:39:23;;;;;;;1.73;1.63;;;;;;;19.51;29.45;101482.75;5012780;28;20041;-70
2022/04/20 06:41:48;;;;;;;1.98;1.77;;;;;;;19.58;29.68;101486.97;5013022;28;20049;-71
2022/04/20 06:44:14;;;;;;;1.35;1.33;;;;;;;19.66;29.71;101491.16;4995416;28;20034;-71
2022/04/20 06:46:39;;;;;;;1.60;1.50;;;;;;;19.73;29.72;101497.28;5012597;28;20113;-71
2022/04/20 06:49:06;;;;;;;1.70;1.60;;;;;;;19.78;29.44;101491.88;5012974;28;20045;-70
2022/04/20 06:58:31;;;;;;;1.50;1.40;;;;;;;19.84;29.24;101486.38;5012183;28;20114;-70
2022/04/20 06:59:44;;;;;;;1.90;1.70;;;;;;;19.95;28.96;101488.97;5012561;28;20105;-72
2022/04/20 07:02:11;;;;;;;1.40;1.40;;;;;;;20.00;28.95;101488.16;5012769;28;20034;-73
2022/04/20 07:04:36;;;;;;;1.60;1.50;;;;;;;20.02;29.10;101487.91;5012953;28;20046;-73
2022/04/20 07:07:01;;;;;;;1.52;1.42;;;;;;;20.05;29.00;101493.72;5013251;28;20048;-73
2022/04/20 07:09:27;;;;;;;1.63;1.38;;;;;;;20.08;29.02;101495.13;5012383;28;20561;-73
2022/04/20 07:11:52;;;;;;;1.27;1.20;;;;;;;20.10;29.35;101492.94;5012349;28;20121;-73
2022/04/20 07:14:17;;;;;;;1.50;1.40;;;;;;;20.12;29.44;101494.34;5012513;28;20568;-73
2022/04/20 07:16:43;;;;;;;1.48;1.38;;;;;;;20.14;29.06;101488.56;5012262;28;20044;-73
2022/04/20 07:19:08;;;;;;;1.50;1.40;;;;;;;20.16;28.81;101487.19;5013000;28;20037;-73
2022/04/20 07:21:34;;;;;;;1.60;1.30;;;;;;;20.17;28.73;101488.03;5011580;28;20034;-73
2022/04/20 07:23:59;;;;;;;1.60;1.50;;;;;;;20.20;28.90;101490.25;5011931;28;20049;-73
2022/04/20 07:26:26;;;;;;;1.65;1.55;;;;;;;20.22;28.91;101487.22;5011162;28;20030;-73
2022/04/20 07:28:51;;;;;;;1.60;1.50;;;;;;;20.23;28.70;101491.66;5012330;28;20040;-73
2022/04/20 07:31:17;;;;;;;1.77;1.50;;;;;;;20.25;29.09;101484.75;5012283;28;20409;-73
2022/04/20 07:33:42;;;;;;;1.20;1.20;;;;;;;20.26;28.35;101494.69;5012021;28;20037;-73
2022/04/20 07:36:08;;;;;;;1.73;1.50;;;;;;;20.27;28.47;101490.00;4994688;28;20058;-73
2022/04/20 07:38:33;;;;;;;1.40;1.30;;;;;;;20.29;28.39;101498.88;5010930;28;20030;-73
2022/04/20 07:40:58;;;;;;;1.58;1.48;;;;;;;20.29;28.62;101494.16;5011544;28;20116;-73
2022/04/20 07:43:24;;;;;;;1.30;1.30;;;;;;;20.31;28.43;101491.16;5012134;28;20113;-73
2022/04/20 07:45:49;;;;;;;1.40;1.30;;;;;;;20.33;28.68;101494.50;5011719;28;20026;-73
2022/04/20 07:48:15;;;;;;;1.40;1.30;;;;;;;20.34;28.58;101496.13;5011975;28;20044;-73
2022/04/20 07:50:40;;;;;;;1.23;1.23;;;;;;;20.35;28.68;101500.56;5010452;28;20030;-73
2022/04/20 07:53:07;;;;;;;1.50;1.35;;;;;;;20.36;28.44;101502.22;5011603;28;20071;-73
2022/04/20 07:55:34;;;;;;;2.08;1.50;;;;;;;20.37;28.40;101503.03;5011576;28;20492;-73
2022/04/20 07:58:03;;;;;;;1.70;1.60;;;;;;;20.37;28.51;101506.63;5011370;28;20125;-73
2022/04/20 08:00:28;;;;;;;2.50;1.80;;;;;;;20.38;28.22;101510.22;5012418;28;20061;-73
2022/04/20 08:03:26;;;;;;;1.50;1.40;;;;;;;20.40;29.07;101499.75;5011805;28;20070;-73
2022/04/20 08:05:54;;;;;;;1.60;1.50;;;;;;;20.39;28.61;101503.59;4978422;28;20050;-73
2022/04/20 08:08:21;;;;;;;1.30;1.20;;;;;;;20.39;28.29;101509.94;5011979;28;20049;-73
2022/04/20 08:10:46;;;;;;;2.53;1.50;;;;;;;20.40;28.27;101502.50;5010466;28;20038;-73
2022/04/20 08:15:56;;;;;;;1.50;1.40;;;;;;;20.41;28.47;101505.00;5012133;28;20040;-73
2022/04/20 08:18:22;;;;;;;1.50;1.40;;;;;;;20.42;27.81;101511.34;5011539;28;20030;-73
2022/04/20 08:20:49;;;;;;;1.70;1.60;;;;;;;20.42;28.01;101509.41;5010842;28;20038;-73
2022/04/20 08:23:14;;;;;;;1.63;1.40;;;;;;;20.44;27.89;101506.41;5012059;28;20037;-73
2022/04/20 08:25:41;;;;;;;1.55;1.45;;;;;;;20.44;27.97;101507.22;5011476;28;20034;-73
2022/04/20 08:28:07;;;;;;;1.35;1.25;;;;;;;20.44;27.84;101509.97;5011685;28;20173;-73
2022/04/20 08:30:36;;;;;;;1.60;1.50;;;;;;;20.45;27.87;101514.41;5010710;28;20125;-73
2022/04/20 08:33:06;;;;;;;1.60;1.50;;;;;;;20.46;28.00;101507.81;5011403;28;20522;-73
2022/04/20 08:35:32;;;;;;;1.35;1.25;;;;;;;20.45;27.70;101511.63;5011305;28;20141;-73
2022/04/20 08:37:58;;;;;;;1.50;1.42;;;;;;;20.45;27.73;101511.63;5011785;28;20026;-73
2022/04/20 08:40:24;;;;;;;1.55;1.45;;;;;;;20.46;27.67;101512.47;5010597;28;20040;-73
2022/04/20 08:42:50;;;;;;;1.50;1.40;;;;;;;20.47;27.88;101514.13;5010073;28;20374;-73
2022/04/20 08:45:16;;;;;;;1.70;1.60;;;;;;;20.46;27.89;101509.69;5010900;28;20059;-73
2022/04/20 08:47:44;;;;;;;1.20;1.20;;;;;;;20.47;27.45;101511.38;5011186;28;20389;-73
2022/04/20 08:50:10;;;;;;;1.58;1.48;;;;;;;20.48;27.80;101516.63;5009913;28;20042;-73
2022/04/20 08:52:38;;;;;;;1.70;1.60;;;;;;;20.49;27.51;101506.41;5011443;28;20367;-73
2022/04/20 08:55:07;;;;;;;1.40;1.40;;;;;;;20.49;27.81;101500.91;5011113;28;20045;-73
2022/04/20 08:57:37;;;;;;;1.50;1.40;;;;;;;20.50;27.98;101499.81;5010646;28;20029;-73
2022/04/20 09:00:05;;;;;;;1.50;1.45;;;;;;;20.49;27.88;101492.63;5010886;28;20033;-73
2022/04/20 09:02:31;;;;;;;2.00;1.75;;;;;;;20.50;28.04;101497.06;5010267;28;20038;-73
2022/04/20 09:04:57;;;;;;;1.63;1.52;;;;;;;20.50;28.10;101497.88;5010487;28;20057;-72
2022/04/20 09:07:24;;;;;;;1.40;1.30;;;;;;;20.51;27.80;101504.25;5010952;28;20053;-72
2022/04/20 09:09:50;;;;;;;1.73;1.60;;;;;;;20.51;27.91;101498.72;5010774;28;20040;-73
2022/04/20 09:12:17;;;;;;;1.40;1.35;;;;;;;20.52;28.03;101505.88;5011495;28;20022;-72
2022/04/20 09:14:45;;;;;;;1.70;1.60;;;;;;;20.53;27.68;101493.75;5010826;28;20034;-72
2022/04/20 09:17:16;;;;;;;1.75;1.58;;;;;;;20.53;27.73;101506.72;5010486;28;20428;-72
2022/04/20 09:19:42;;;;;;;1.95;1.70;;;;;;;20.51;27.40;101494.03;5010783;28;20076;-72
2022/04/20 09:22:32;;;;;;;1.98;1.60;;;;;;;20.54;27.74;101500.13;5010478;28;20117;-72
2022/04/20 09:25:05;;;;;;;1.70;1.60;;;;;;;20.53;27.38;101492.94;5010518;28;20470;-73
2022/04/20 09:27:31;;;;;;;1.70;1.60;;;;;;;20.51;27.25;101499.53;5010969;28;20369;-71
2022/04/20 09:29:58;;;;;;;1.63;1.52;;;;;;;20.51;27.03;101493.22;5010617;28;20038;-72
2022/04/20 09:32:33;;;;;;;1.70;1.60;;;;;;;20.51;27.48;101485.75;5009396;28;20030;-72
2022/04/20 09:34:59;;;;;;;1.80;1.70;;;;;;;20.51;26.88;101493.22;5010625;28;20033;-72
2022/04/20 09:37:25;;;;;;;1.70;1.60;;;;;;;20.51;26.89;101479.44;5010141;28;20121;-72
2022/04/20 09:39:51;;;;;;;2.30;1.70;;;;;;;20.50;26.98;101475.81;5010794;28;20064;-70
2022/04/20 09:42:18;;;;;;;1.70;1.60;;;;;;;20.51;26.98;101471.97;5011049;28;20061;-70
2022/04/20 09:45:11;;;;;;;1.60;1.50;;;;;;;20.55;27.41;101476.97;5010430;28;20038;-70
2022/04/20 09:50:22;;;;;;;1.30;1.30;;;;;;;20.53;26.62;101473.66;5010749;28;19959;-70
2022/04/20 09:52:49;;;;;;;1.50;1.40;;;;;;;20.51;26.40;101471.97;5010385;28;20032;-70
2022/04/20 09:55:36;;;;;;;1.60;1.50;;;;;;;20.51;26.42;101471.16;5010873;28;20367;-70
2022/04/20 09:58:18;;;;;;;1.65;1.55;;;;;;;20.51;27.09;101466.47;5011330;28;20059;-70
2022/04/20 10:00:48;;;;;;;1.50;1.40;;;;;;;20.51;27.46;101462.91;5014561;28;20026;-68
2022/04/20 10:03:24;;;;;;;1.40;1.30;;;;;;;20.55;27.67;101454.91;5013611;28;20041;-69
2022/04/20 10:05:50;;;;;;;1.23;1.20;;;;;;;20.53;27.08;101463.44;5012247;28;20050;-71
2022/04/20 10:08:17;;;;;;;1.15;1.15;;;;;;;20.50;26.86;101451.03;5012324;28;20385;-71
2022/04/20 10:10:42;;;;;;;1.40;1.30;;;;;;;20.46;27.04;101458.19;5013556;28;20038;-72
2022/04/20 10:13:10;;;;;;;1.40;1.30;;;;;;;20.44;27.87;101462.31;5012778;28;20519;-72
2022/04/20 10:18:25;;;;;;;1.00;1.00;;;;;;;20.46;26.84;101460.09;5012761;28;20046;-73
2022/04/20 10:20:56;;;;;;;1.17;1.17;;;;;;;20.46;27.17;101451.81;5013361;28;20462;-69
2022/04/20 10:23:23;;;;;;;1.23;1.13;;;;;;;20.48;27.86;101452.41;5013618;28;20157;-70
2022/04/20 10:25:50;;;;;;;1.23;1.15;;;;;;;20.49;27.00;101452.13;5012620;28;20062;-70
2022/04/20 10:28:37;;;;;;;1.50;1.40;;;;;;;20.51;27.43;101449.13;5013298;28;20125;-70
2022/04/20 10:31:18;;;;;;;1.10;1.10;;;;;;;20.51;27.35;101438.91;5013693;28;20446;-70
2022/04/20 10:33:44;;;;;;;1.23;1.13;;;;;;;20.53;27.00;101435.06;5013684;28;20025;-70
2022/04/20 10:36:13;;;;;;;1.33;1.23;;;;;;;20.53;26.89;101443.34;5012915;28;20038;-70
2022/04/20 10:38:39;;;;;;;1.30;1.20;;;;;;;20.54;27.17;101440.31;5013675;28;20042;-70
2022/04/20 10:41:09;;;;;;;1.08;1.08;;;;;;;20.55;27.32;101436.47;5013093;28;20056;-70
2022/04/20 10:43:39;;;;;;;1.35;1.02;;;;;;;20.57;27.55;101438.94;5013567;28;20113;-70
2022/04/20 10:46:20;;;;;;;1.30;1.20;;;;;;;20.59;27.18;101433.97;5012581;28;20429;-70
2022/04/20 10:49:02;;;;;;;1.10;1.10;;;;;;;20.58;27.57;101430.41;5013304;28;20094;-70
2022/04/20 10:51:32;;;;;;;1.15;1.05;;;;;;;20.61;27.52;101432.63;5013251;28;20347;-70
2022/04/20 10:54:22;;;;;;;1.10;1.00;;;;;;;20.64;27.77;101443.09;5012905;28;20030;-70
2022/04/20 10:56:49;;;;;;;1.00;1.00;;;;;;;20.63;27.54;101446.13;5013091;28;20040;-70
2022/04/20 10:59:14;;;;;;;0.85;0.85;;;;;;;20.64;27.73;101425.75;5012760;28;20034;-70
2022/04/20 11:02:03;;;;;;;1.10;1.10;;;;;;;20.66;27.64;101416.13;5013047;28;20158;-70
2022/04/20 11:04:50;;;;;;;1.08;1.00;;;;;;;20.65;27.56;101422.72;5004187;28;20045;-70
2022/04/20 11:07:23;;;;;;;0.80;0.80;;;;;;;20.66;27.64;101413.38;4996214;28;20059;-70
2022/04/20 11:10:09;;;;;;;1.35;1.25;;;;;;;20.68;27.82;101407.56;5012946;28;20130;-70
2022/04/20 11:21:03;;;;;;;1.00;1.00;;;;;;;20.72;27.61;101414.22;5012788;28;20049;-70
2022/04/20 11:24:01;;;;;;;1.17;1.08;;;;;;;20.74;27.66;101402.91;5012672;28;20038;-70
2022/04/20 11:26:34;;;;;;;0.80;0.80;;;;;;;20.74;27.78;101406.50;5013016;28;20026;-70
2022/04/20 11:29:08;;;;;;;1.13;1.02;;;;;;;20.74;27.71;101392.69;5012430;28;20086;-70
2022/04/20 11:31:38;;;;;;;1.10;0.98;;;;;;;20.74;28.06;101392.69;5012883;28;20038;-70
2022/04/20 11:34:05;;;;;;;1.15;1.00;;;;;;;20.74;27.59;101383.63;5012205;28;20090;-70
2022/04/20 11:36:31;;;;;;;1.48;0.73;;;;;;;20.76;28.02;101409.81;5012243;28;20030;-70
2022/04/20 11:38:57;;;;;;;0.93;0.80;;;;;;;20.76;27.63;101393.28;5012121;28;20145;-70
2022/04/20 11:41:22;;;;;;;2.60;0.80;;;;;;;20.77;27.51;101392.19;5011714;28;20134;-70
2022/04/20 11:43:49;;;;;;;0.85;0.85;;;;;;;20.79;28.66;101376.19;5010675;28;20068;-75
2022/04/20 11:46:16;;;;;;;1.10;1.00;;;;;;;20.82;28.31;101380.34;5011977;28;20030;-69
2022/04/20 11:48:55;;;;;;;1.05;0.82;;;;;;;20.84;28.01;101372.63;5011732;28;20095;-69
2022/04/20 11:51:27;;;;;;;1.30;1.20;;;;;;;20.84;28.30;101367.91;5010390;28;20041;-70
2022/04/20 11:53:53;;;;;;;1.10;1.00;;;;;;;20.85;28.39;101374.28;5010776;28;20116;-70
2022/04/20 11:56:36;;;;;;;0.90;0.90;;;;;;;20.87;28.69;101372.06;5011951;28;20040;-70
2022/04/20 11:59:07;;;;;;;1.35;0.98;;;;;;;20.87;28.32;101374.00;5012148;28;20026;-71
2022/04/20 12:01:33;;;;;;;0.88;0.80;;;;;;;20.88;28.25;101368.22;5011825;28;20094;-70